Time;durP1;ratioP1;P1;durP2;ratioP2;P2;SDS_P1;SDS_P2;PMS_P1;PMS_P2;Temp;Humidity;BMP_temperature;BMP_pressure;BME280_temperature;BME280_humidity;BME280_pressure;Samples;Min_cycle;Max_cycle;Signal;HPM_P1;HPM_P2
2023/03/23 00:02:26;;;;;;;19.20;11.70;;;;;;;;;;5014077;28;20042;-64
2023/03/23 00:04:53;;;;;;;18.60;11.50;;;;;;;;;;4995888;28;20042;-62
2023/03/23 00:07:21;;;;;;;16.10;10.13;;;;;;;;;;5014467;28;20042;-61
2023/03/23 00:09:53;;;;;;;19.85;10.93;;;;;;;;;;5032402;28;20041;-62
2023/03/23 00:12:28;;;;;;;21.58;10.30;;;;;;;;;;5033470;28;20045;-63
2023/03/23 00:14:55;;;;;;;19.30;11.90;;;;;;;;;;5015901;28;20458;-65
2023/03/23 00:17:21;;;;;;;15.27;8.38;;;;;;;;;;5012072;28;20068;-64
2023/03/23 00:19:47;;;;;;;18.50;9.57;;;;;;;;;;5033035;28;20038;-65
2023/03/23 00:22:14;;;;;;;18.02;11.98;;;;;;;;;;4998428;28;20132;-66
2023/03/23 00:24:41;;;;;;;10.73;6.97;;;;;;;;;;4998381;28;20091;-66
2023/03/23 00:27:08;;;;;;;8.45;5.20;;;;;;;;;;5011921;28;20034;-66
2023/03/23 00:29:34;;;;;;;8.10;5.72;;;;;;;;;;5031376;28;20448;-65
2023/03/23 00:32:01;;;;;;;9.73;5.68;;;;;;;;;;5025264;28;20042;-63
2023/03/23 00:34:32;;;;;;;12.65;8.35;;;;;;;;;;5006886;28;20175;-64
2023/03/23 00:36:58;;;;;;;18.40;10.18;;;;;;;;;;4983172;28;20057;-63
2023/03/23 00:39:25;;;;;;;15.25;9.15;;;;;;;;;;5013827;28;20116;-63
2023/03/23 00:41:52;;;;;;;22.52;11.48;;;;;;;;;;4998204;28;20041;-61
2023/03/23 00:44:23;;;;;;;14.35;9.95;;;;;;;;;;4999369;28;20050;-64
2023/03/23 00:46:49;;;;;;;24.48;12.98;;;;;;;;;;4999630;28;20478;-65
2023/03/23 00:49:16;;;;;;;18.90;11.20;;;;;;;;;;4994401;28;20046;-65
2023/03/23 00:51:43;;;;;;;19.38;10.57;;;;;;;;;;5028217;28;20490;-64
2023/03/23 00:54:09;;;;;;;15.43;7.93;;;;;;;;;;5034294;28;20045;-63
2023/03/23 00:56:36;;;;;;;14.75;9.05;;;;;;;;;;5002756;28;20067;-62
2023/03/23 00:59:02;;;;;;;17.10;7.90;;;;;;;;;;5002210;28;20072;-62
2023/03/23 01:01:28;;;;;;;13.60;7.80;;;;;;;;;;5016837;28;20060;-66
2023/03/23 01:04:00;;;;;;;12.32;6.90;;;;;;;;;;5034887;28;20049;-62
2023/03/23 01:06:27;;;;;;;16.13;7.40;;;;;;;;;;5002083;28;20099;-63
2023/03/23 01:08:53;;;;;;;12.18;7.13;;;;;;;;;;5015529;28;20124;-62
2023/03/23 01:11:20;;;;;;;13.23;7.30;;;;;;;;;;5022369;28;20045;-63
2023/03/23 01:13:46;;;;;;;11.63;5.60;;;;;;;;;;5018399;28;20498;-65
2023/03/23 01:16:13;;;;;;;15.85;7.50;;;;;;;;;;5018446;28;20112;-62
2023/03/23 01:18:39;;;;;;;14.90;8.10;;;;;;;;;;5035248;28;20045;-61
2023/03/23 01:21:13;;;;;;;13.93;6.28;;;;;;;;;;5036489;28;20077;-62
2023/03/23 01:23:39;;;;;;;11.15;6.00;;;;;;;;;;5018567;28;20052;-61
2023/03/23 01:26:10;;;;;;;13.15;7.10;;;;;;;;;;5006012;28;20046;-61
2023/03/23 01:28:37;;;;;;;9.77;5.85;;;;;;;;;;5013550;28;20080;-63
2023/03/23 01:31:04;;;;;;;13.65;6.47;;;;;;;;;;5033370;28;20048;-64
2023/03/23 01:33:30;;;;;;;14.35;7.25;;;;;;;;;;5016038;28;20425;-64
2023/03/23 01:35:56;;;;;;;14.30;6.93;;;;;;;;;;5013985;28;20118;-62
2023/03/23 01:38:22;;;;;;;16.30;8.18;;;;;;;;;;5035662;28;20183;-63
2023/03/23 01:40:48;;;;;;;8.70;5.53;;;;;;;;;;5002698;28;20052;-61
2023/03/23 01:43:16;;;;;;;14.07;5.95;;;;;;;;;;5010787;28;20041;-64
2023/03/23 01:45:42;;;;;;;10.68;5.95;;;;;;;;;;5018367;28;20512;-61
2023/03/23 01:48:14;;;;;;;11.65;5.93;;;;;;;;;;5018865;28;20037;-62
2023/03/23 01:50:50;;;;;;;8.77;5.40;;;;;;;;;;5009245;28;20045;-65
2023/03/23 01:53:16;;;;;;;8.98;5.28;;;;;;;;;;5032451;28;20041;-65
2023/03/23 01:55:48;;;;;;;10.82;4.93;;;;;;;;;;5016111;28;20095;-64
2023/03/23 01:58:14;;;;;;;12.48;5.45;;;;;;;;;;4983230;28;20041;-62
2023/03/23 02:00:42;;;;;;;15.40;4.80;;;;;;;;;;5029820;28;20041;-64
2023/03/23 02:03:09;;;;;;;10.27;4.10;;;;;;;;;;5016808;28;20037;-62
2023/03/23 02:05:38;;;;;;;6.88;3.92;;;;;;;;;;5016107;28;20448;-60
2023/03/23 02:08:05;;;;;;;12.07;5.82;;;;;;;;;;5018219;28;20045;-61
2023/03/23 02:10:32;;;;;;;6.93;3.80;;;;;;;;;;5034478;28;20039;-61
2023/03/23 02:12:59;;;;;;;9.27;5.05;;;;;;;;;;5016328;28;20042;-62
2023/03/23 02:15:27;;;;;;;7.40;4.75;;;;;;;;;;5010124;28;20087;-63
2023/03/23 02:21:19;;;;;;;9.70;5.22;;;11.20;99.90;;;;;;5011933;28;20093;-67
2023/03/23 02:23:52;;;;;;;8.75;4.45;;;;;;;;;;4994810;28;20061;-61
2023/03/23 02:26:18;;;;;;;8.02;3.55;;;;;;;;;;5007072;28;20045;-63
2023/03/23 02:28:51;;;;;;;8.38;4.53;;;;;;;;;;4996443;28;20375;-62
2023/03/23 02:31:38;;;;;;;8.52;3.90;;;;;;;;;;4997390;28;20378;-60
2023/03/23 02:34:04;;;;;;;11.13;5.07;;;;;;;;;;5001328;28;20077;-61
2023/03/23 02:42:26;;;;;;;8.85;4.22;;;;;;;;;;4971547;28;20061;-62
2023/03/23 02:44:52;;;;;;;7.60;3.30;;;;;;;;;;4946125;28;20116;-65
2023/03/23 02:47:21;;;;;;;10.55;4.07;;;;;;;;;;4940986;28;20038;-65
2023/03/23 02:49:48;;;;;;;8.60;4.00;;;;;;;;;;4974008;28;20038;-63
2023/03/23 02:52:17;;;;;;;6.75;3.75;;;;;;;;;;4942229;28;20181;-66
2023/03/23 02:54:44;;;;;;;5.75;3.17;;;;;;;;;;4959691;28;20137;-61
2023/03/23 02:57:10;;;;;;;6.97;3.85;;;;;;;;;;4942164;28;20046;-63
2023/03/23 02:59:37;;;;;;;9.07;4.38;;;;;;;;;;4974734;28;20383;-63
2023/03/23 03:02:09;;;;;;;9.95;4.25;;;;;;;;;;4974329;28;20166;-62
2023/03/23 03:04:39;;;;;;;8.40;3.67;;;;;;;;;;4944549;28;20159;-63
2023/03/23 03:07:05;;;;;;;9.35;4.55;;;;;;;;;;4987289;28;20046;-62
2023/03/23 03:09:51;;;;;;;8.70;3.30;;;;;;;;;;4974991;28;20185;-65
2023/03/23 03:12:31;;;;;;;7.00;3.22;;;;;;;;;;4958603;28;20043;-62
2023/03/23 03:15:05;;;;;;;8.63;4.63;;;;;;;;;;4959486;28;20368;-63
2023/03/23 03:17:32;;;;;;;6.90;3.80;;;;;;;;;;4967605;28;20047;-61
2023/03/23 03:20:04;;;;;;;10.13;4.22;;;;;;;;;;4991016;28;20042;-62
2023/03/23 03:22:30;;;;;;;9.00;3.78;;;;;;;;;;4969596;28;20078;-63
2023/03/23 03:24:57;;;;;;;5.22;3.28;;;;;;;;;;4941717;28;20068;-63
2023/03/23 03:27:24;;;;;;;7.75;4.32;;;;;;;;;;4972784;28;20043;-61
2023/03/23 03:29:54;;;;;;;9.25;4.28;;;;;;;;;;4975175;28;20201;-61
2023/03/23 03:32:24;;;;;;;6.50;3.08;;;;;;;;;;4972574;28;20039;-65
2023/03/23 03:34:50;;;;;;;10.83;4.10;;;;;;;;;;4946852;29;20047;-62
2023/03/23 03:37:16;;;;;;;7.22;3.50;;;;;;;;;;4971897;28;20888;-61
2023/03/23 03:39:42;;;;;;;8.32;4.20;;;;;;;;;;4940865;28;20382;-61
2023/03/23 03:42:08;;;;;;;9.50;4.05;;;;;;;;;;4945230;28;20047;-62
2023/03/23 03:44:35;;;;;;;7.80;3.15;;;;;;;;;;4953668;28;20364;-62
2023/03/23 03:47:01;;;;;;;11.65;4.13;;;;;;;;;;4954965;28;20130;-62
2023/03/23 03:49:27;;;;;;;9.50;4.53;;;;;;;;;;4940756;28;20066;-62
2023/03/23 03:51:53;;;;;;;8.55;3.72;;;;;;;;;;4955101;28;20382;-63
2023/03/23 03:54:19;;;;;;;6.88;3.78;;;;;;;;;;4974914;28;20046;-64
2023/03/23 03:56:45;;;;;;;6.90;2.97;;;;;;;;;;4956782;28;20476;-64
2023/03/23 03:59:12;;;;;;;7.13;3.38;;;;;;;;;;4958168;28;20069;-61
2023/03/23 04:01:39;;;;;;;5.45;3.10;;;;;;;;;;4957094;28;20086;-63
2023/03/23 04:04:06;;;;;;;8.00;3.55;;;;;;;;;;4956744;28;20506;-62
2023/03/23 04:06:35;;;;;;;7.72;3.70;;;;;;;;;;4942079;28;20075;-62
2023/03/23 04:09:05;;;;;;;13.02;4.03;;;;;;;;;;4974497;28;20376;-64
2023/03/23 04:11:31;;;;;;;9.07;4.00;;;;;;;;;;4964070;28;20054;-64
2023/03/23 04:13:57;;;;;;;5.75;3.30;;;;;;;;;;4954839;28;20302;-63
2023/03/23 04:16:23;;;;;;;11.63;3.85;;;;;;;;;;4974797;28;20038;-61
2023/03/23 04:18:50;;;;;;;6.25;2.30;;;;;;;;;;4955676;28;20074;-64
2023/03/23 04:21:16;;;;;;;5.93;2.75;;;;;;;;;;4946071;28;20047;-63
2023/03/23 04:23:42;;;;;;;11.25;2.85;;;;;;;;;;4941549;28;20492;-60
2023/03/23 04:26:12;;;;;;;9.55;3.17;;;;;;;;;;4957912;28;20057;-64
2023/03/23 04:28:38;;;;;;;12.57;3.08;;;;;;;;;;4977002;28;20046;-62
2023/03/23 04:31:04;;;;;;;8.35;2.83;;;;;;;;;;4961075;28;20045;-64
2023/03/23 04:33:31;;;;;;;4.65;2.13;;;;;;;;;;4961009;28;20118;-64
2023/03/23 04:36:00;;;;;;;6.28;2.05;;;;;;;;;;4978534;28;20038;-64
2023/03/23 04:38:27;;;;;;;11.30;2.03;;;;;;;;;;4960783;28;20046;-63
2023/03/23 04:40:53;;;;;;;7.60;2.13;;;;;;;;;;4956604;28;20104;-61
2023/03/23 04:43:24;;;;;;;8.90;2.20;;;;;;;;;;5000238;28;20052;-65
2023/03/23 04:45:55;;;;;;;8.25;2.00;;;;;;;;;;5000519;28;20056;-63
2023/03/23 04:48:26;;;;;;;6.85;2.30;;;;;;;;;;5016278;28;20077;-62
2023/03/23 04:50:52;;;;;;;8.82;1.52;;;;;;;;;;4994257;28;20045;-61
2023/03/23 04:53:18;;;;;;;3.72;1.40;;;;;;;;;;4996609;28;20049;-63
2023/03/23 04:55:45;;;;;;;10.05;1.85;;;;;;;;;;4997634;28;20054;-62
2023/03/23 04:58:14;;;;;;;5.15;1.52;;;;;;;;;;4979792;28;20046;-63
2023/03/23 05:00:40;;;;;;;7.00;1.38;;;;;;;;;;4996110;28;20042;-64
2023/03/23 05:03:07;;;;;;;14.02;2.78;;;;;;;;;;4979591;28;20042;-63
2023/03/23 05:05:34;;;;;;;17.50;2.17;;;;;;;;;;4979886;28;20046;-62
2023/03/23 05:08:01;;;;;;;13.82;2.33;;;;;;;;;;4995708;28;20439;-63
2023/03/23 05:10:27;;;;;;;10.63;2.40;;;;;;;;;;4980245;28;20069;-61
2023/03/23 05:12:53;;;;;;;20.05;3.97;;;;;;;;;;4980009;28;20046;-63
2023/03/23 05:15:19;;;;;;;12.50;2.15;;;;;;;;;;4996833;28;20054;-66
2023/03/23 05:17:45;;;;;;;15.48;2.22;;;;;;;;;;4979629;28;20042;-62
2023/03/23 05:20:14;;;;;;;12.88;2.90;;;;;;;;;;4997756;28;20046;-66
2023/03/23 05:22:40;;;;;;;16.45;2.63;;;;;;;;;;4995054;28;20475;-64
2023/03/23 05:25:08;;;;;;;15.43;2.83;;;;;;;;;;4997148;28;20041;-63
2023/03/23 05:27:35;;;;;;;15.90;2.40;;;;;;;;;;4997215;28;20050;-63
2023/03/23 05:30:01;;;;;;;14.85;3.17;;;;;;;;;;4997015;28;20474;-66
2023/03/23 05:32:28;;;;;;;12.30;3.40;;;;;;;;;;4993454;28;20076;-61
2023/03/23 05:34:56;;;;;;;17.50;2.88;;;;;;;;;;4996606;28;20426;-64
2023/03/23 05:37:23;;;;;;;19.45;2.55;;;;;;;;;;4980586;28;20080;-63
2023/03/23 05:39:53;;;;;;;13.48;2.20;;;;;;;;;;4978367;28;20043;-62
2023/03/23 05:42:19;;;;;;;19.35;2.78;;;;;;;;;;4996371;28;20059;-62
2023/03/23 05:44:45;;;;;;;19.00;3.65;;;;;;;;;;4979575;28;20042;-62
2023/03/23 05:47:12;;;;;;;14.13;2.40;;;;;;;;;;4996792;28;20132;-63
2023/03/23 05:49:38;;;;;;;12.52;2.38;;;;;;;;;;4978833;28;20181;-66
2023/03/23 05:52:04;;;;;;;8.02;2.22;;;;;;;;;;4975412;28;20050;-62
2023/03/23 05:54:30;;;;;;;10.27;1.40;;;;;;;;;;5023626;23;20364;-62
2023/03/23 05:56:56;;;;;;;12.80;2.90;;;;;;;;;;5012204;23;20058;-62
2023/03/23 05:59:23;;;;;;;12.40;2.38;;;;;;;;;;5015666;28;20046;-64
2023/03/23 06:01:49;;;;;;;14.32;2.53;;;;;;;;;;5016117;28;20046;-60
2023/03/23 06:04:16;;;;;;;13.00;2.30;;;;;;;;;;4997287;28;20050;-63
2023/03/23 06:06:43;;;;;;;19.08;3.35;;;;;;;;;;4997868;28;20042;-61
2023/03/23 06:09:10;;;;;;;12.63;2.65;;;;;;;;;;5014667;28;20556;-64
2023/03/23 06:11:36;;;;;;;10.68;2.90;;;;;;;;;;4992052;23;20042;-63
2023/03/23 06:14:02;;;;;;;13.02;2.13;;;;;;;;;;4998652;23;20077;-61
2023/03/23 06:16:29;;;;;;;25.15;3.17;;;;;;;;;;4985731;28;20046;-62
2023/03/23 06:18:56;;;;;;;18.95;2.80;;;;;;;;;;4974845;28;20109;-63
2023/03/23 06:21:22;;;;;;;16.95;3.70;;;;;;;;;;4957548;28;20035;-63
2023/03/23 06:23:49;;;;;;;16.73;2.78;;;;;;;;;;4958393;28;20043;-64
2023/03/23 06:26:18;;;;;;;11.27;2.90;;;;;;;;;;4976666;28;20099;-63
2023/03/23 06:28:44;;;;;;;17.10;3.42;;;;;;;;;;4974903;28;20050;-65
2023/03/23 06:31:11;;;;;;;23.70;3.92;;;;;;;;;;4974004;28;20043;-65
2023/03/23 06:33:37;;;;;;;19.58;3.92;;;;;;;;;;4959414;28;20047;-61
2023/03/23 06:36:04;;;;;;;21.15;3.50;;;;;;;;;;4976843;28;20041;-64
2023/03/23 06:38:31;;;;;;;25.40;5.63;;;;;;;;;;4975783;28;20051;-63
2023/03/23 06:40:57;;;;;;;17.60;2.78;;;;;;;;;;4958609;28;20377;-62
2023/03/23 06:43:24;;;;;;;15.82;3.35;;;;;;;;;;4975859;28;20038;-61
2023/03/23 06:45:51;;;;;;;11.45;2.40;;;;;;;;;;4959034;28;20121;-61
2023/03/23 06:48:17;;;;;;;14.73;3.38;;;;;;;;;;4958864;28;20046;-62
2023/03/23 06:50:44;;;;;;;15.13;3.58;;;;;;;;;;4956804;28;20047;-61
2023/03/23 06:53:10;;;;;;;28.20;4.13;;;;;;;;;;4975319;28;20046;-64
2023/03/23 06:55:37;;;;;;;17.55;2.72;;;;;;;;;;4974762;28;20376;-60
2023/03/23 06:58:05;;;;;;;28.27;4.30;;;;;;;;;;4974974;28;20054;-62
2023/03/23 07:00:31;;;;;;;15.30;2.85;;;;;;;;;;4973743;28;20177;-61
2023/03/23 07:02:58;;;;;;;20.20;3.88;;;;;;;;;;4957521;28;20353;-59
2023/03/23 07:05:24;;;;;;;19.25;3.40;;;;;;;;;;4974290;28;20057;-61
2023/03/23 07:07:51;;;;;;;20.65;3.17;;;;;;;;;;4975307;28;20098;-64
2023/03/23 07:10:17;;;;;;;13.63;3.28;;;;;;;;;;4975066;28;20495;-64
2023/03/23 07:12:43;;;;;;;19.30;4.10;;;;;;;;;;4974937;28;20046;-60
2023/03/23 07:15:10;;;;;;;13.93;2.65;;;;;;;;;;4957828;28;20057;-65
2023/03/23 07:17:41;;;;;;;16.15;3.35;;;;;;;;;;4975408;28;20042;-60
2023/03/23 07:20:07;;;;;;;15.25;2.15;;;;;;;;;;4974500;28;20050;-62
2023/03/23 07:22:34;;;;;;;15.23;3.20;;;;;;;;;;4940429;28;20163;-61
2023/03/23 07:25:00;;;;;;;22.23;4.53;;;;;;;;;;4974482;28;20132;-60
2023/03/23 07:27:26;;;;;;;24.88;3.28;;;;;;;;;;4974764;28;20062;-61
2023/03/23 07:29:52;;;;;;;12.90;2.10;;;;;;;;;;4957138;28;20069;-60
2023/03/23 07:32:18;;;;;;;33.25;3.15;;;;;;;;;;4975026;28;20051;-60
2023/03/23 07:34:44;;;;;;;18.80;2.83;;;;;;;;;;4957664;28;20042;-62
2023/03/23 07:37:10;;;;;;;21.52;2.70;;;;;;;;;;4942085;28;20051;-61
2023/03/23 07:39:37;;;;;;;22.38;3.28;;;;;;;;;;4975330;28;20039;-60
2023/03/23 07:42:03;;;;;;;31.27;3.78;;;;;;;;;;4956419;28;20074;-60
2023/03/23 07:44:30;;;;;;;30.33;4.40;;;;;;;;;;4974483;28;20043;-61
2023/03/23 07:46:56;;;;;;;12.35;2.90;;;;;;;;;;4957509;28;20447;-61
2023/03/23 07:49:22;;;;;;;26.48;4.57;;;;;;;;;;4974863;28;20050;-61
2023/03/23 07:51:48;;;;;;;20.00;3.92;;;;;;;;;;4975001;28;20047;-60
2023/03/23 07:54:15;;;;;;;23.90;5.18;;;;;;;;;;4974444;28;20046;-61
2023/03/23 07:56:42;;;;;;;18.88;3.63;;;;;;;;;;4956218;28;20472;-61
2023/03/23 07:59:09;;;;;;;21.45;3.40;;;;;;;;;;4973568;28;20471;-63
2023/03/23 08:01:35;;;;;;;32.70;5.32;;;;;;;;;;4941453;28;20062;-60
2023/03/23 08:04:01;;;;;;;19.88;2.72;;;;;;;;;;4973899;28;20082;-62
2023/03/23 08:06:28;;;;;;;28.88;4.88;;;;;;;;;;4972395;28;20085;-62
2023/03/23 08:08:55;;;;;;;20.13;4.55;;;;;;;;;;4971896;28;20045;-61
2023/03/23 08:11:22;;;;;;;18.27;4.03;;;;;;;;;;4972419;28;20105;-62
2023/03/23 08:13:48;;;;;;;25.10;4.32;;;;;;;;;;4951133;29;20058;-60
2023/03/23 08:16:14;;;;;;;45.42;6.28;;;;;;;;;;4953742;28;20114;-61
2023/03/23 08:18:40;;;;;;;18.17;4.97;;;;;;;;;;4954401;29;20089;-62
2023/03/23 08:21:10;;;;;;;29.60;6.35;;;;;;;;;;4950571;28;20436;-60
2023/03/23 08:23:36;;;;;;;31.73;7.32;;;;;;;;;;4949117;28;20043;-60
2023/03/23 08:26:04;;;;;;;39.00;7.20;;;;;;;;;;4953505;28;20073;-60
2023/03/23 08:28:30;;;;;;;33.50;7.05;;;;;;;;;;4955651;29;20059;-62
2023/03/23 08:30:56;;;;;;;29.30;7.20;;;;;;;;;;4954366;29;20391;-61
2023/03/23 08:33:22;;;;;;;33.63;8.20;;;;;;;;;;4951974;29;20058;-62
2023/03/23 08:35:56;;;;;;;34.78;6.15;;;;;;;;;;4944051;28;20392;-60
2023/03/23 08:38:23;;;;;;;24.05;6.65;;;;;;;;;;4953526;29;20138;-59
2023/03/23 08:40:50;;;;;;;31.48;6.05;;;;;;;;;;4954700;29;20476;-64
2023/03/23 08:43:16;;;;;;;27.90;5.60;;;;;;;;;;4936228;29;20050;-62
2023/03/23 08:45:42;;;;;;;34.03;7.60;;;;;;;;;;4942030;29;20498;-61
2023/03/23 08:48:08;;;;;;;22.02;3.67;;;;;;;;;;4950004;29;20129;-61
2023/03/23 08:50:35;;;;;;;34.83;5.10;;;;;;;;;;4953880;28;20126;-64
2023/03/23 08:53:01;;;;;;;24.67;5.55;;;;;;;;;;4954178;29;20047;-62
2023/03/23 08:55:27;;;;;;;27.95;4.68;;;;;;;;;;4952708;29;20035;-61
2023/03/23 08:57:53;;;;;;;21.23;5.60;;;;;;;;;;4953164;29;20051;-61
2023/03/23 09:00:20;;;;;;;31.67;5.80;;;;;;;;;;4942548;29;20044;-61
2023/03/23 09:02:50;;;;;;;27.10;3.85;;;;;;;;;;4948524;29;20050;-61
2023/03/23 09:05:17;;;;;;;31.33;5.35;;;;;;;;;;4953832;29;20043;-61
2023/03/23 09:07:45;;;;;;;18.88;3.88;;;;;;;;;;4955004;29;20096;-61
2023/03/23 09:10:11;;;;;;;24.15;4.07;;;;;;;;;;4965676;28;20475;-59
2023/03/23 09:12:37;;;;;;;22.25;4.40;;;;;;;;;;4962160;28;20497;-62
2023/03/23 09:15:08;;;;;;;26.88;3.67;;;;;;;;;;4953893;28;20091;-64
2023/03/23 09:17:39;;;;;;;27.55;3.60;;;;;;;;;;4956838;29;20543;-59
2023/03/23 09:20:10;;;;;;;;;;;12.40;99.90;;;;;;4955629;29;20156;-57
2023/03/23 09:22:38;;;;;;;20.33;4.13;;;;;;;;;;4955670;29;19980;-58
2023/03/23 09:25:04;;;;;;;30.10;3.85;;;;;;;;;;4947521;29;20101;-60
2023/03/23 09:27:30;;;;;;;29.80;5.60;;;;;;;;;;4955437;29;20054;-60
2023/03/23 09:29:56;;;;;;;26.77;4.13;;;;;;;;;;4955661;29;20051;-59
2023/03/23 09:32:22;;;;;;;18.00;3.08;;;;;;;;;;4937222;29;20827;-58
2023/03/23 09:37:36;;;;;;;28.92;4.68;;;;;;;;;;5007890;23;20500;-58
2023/03/23 09:40:03;;;;;;;20.15;4.47;;;;;;;;;;5029112;28;20060;-59
2023/03/23 09:42:47;;;;;;;19.50;3.42;;;;;;;;;;5031974;28;20045;-57
2023/03/23 09:45:32;;;;;;;20.08;4.07;;;;;;;;;;5024715;28;20033;-58
2023/03/23 09:48:01;;;;;;;24.58;4.63;;;;;;;;;;5022199;28;20077;-59
2023/03/23 09:50:32;;;;;;;30.70;6.07;;;;;;;;;;5034748;23;20073;-59
2023/03/23 09:52:58;;;;;;;17.45;2.80;;;;;;;;;;5040696;23;20073;-59
2023/03/23 09:55:25;;;;;;;24.58;4.05;;;;;;;;;;5008408;23;20057;-58
2023/03/23 09:57:57;;;;;;;26.92;5.43;;;;;;;;;;5012141;28;20054;-59
2023/03/23 10:00:27;;;;;;;21.67;4.22;;;;;;;;;;5013432;28;20038;-60
2023/03/23 10:03:02;;;;;;;30.45;5.57;;;;;;;;;;4987900;28;20089;-63
2023/03/23 10:05:37;;;;;;;18.75;4.07;;;;;;;;;;4993698;28;20128;-60
2023/03/23 10:08:09;;;;;;;15.45;4.63;;;;;;;;;;4991327;28;20062;-60
2023/03/23 10:10:49;;;;;;;24.77;7.00;;;;;;;;;;5020244;28;20049;-59
2023/03/23 10:13:20;;;;;;;17.03;4.23;;;;;;;;;;5009745;28;20113;-58
2023/03/23 10:15:46;;;;;;;21.95;5.47;;;;;;;;;;4998371;28;20085;-66
2023/03/23 10:18:15;;;;;;;23.55;4.72;;;;;;;;;;5007294;28;20034;-56
2023/03/23 10:20:47;;;;;;;21.95;4.30;;;;;;;;;;4995281;28;20398;-63
2023/03/23 10:23:14;;;;;;;12.52;2.40;;;;;;;;;;4984693;28;20466;-58
2023/03/23 10:25:46;;;;;;;18.70;3.13;;;;;;;;;;5001752;28;20053;-60
2023/03/23 10:28:13;;;;;;;17.27;2.60;;;;;;;;;;5009678;28;20050;-59
2023/03/23 10:31:11;;;;;;;13.50;3.58;;;13.50;99.90;;;;;;5010449;28;20045;-60
2023/03/23 10:33:44;;;;;;;13.95;3.05;;;;;;;;;;4996673;28;20050;-59
2023/03/23 10:36:20;;;;;;;17.00;3.08;;;;;;;;;;5012259;28;20482;-59
2023/03/23 10:38:53;;;;;;;12.70;2.05;;;;;;;;;;5005527;28;20426;-59
2023/03/23 10:41:20;;;;;;;12.07;2.28;;;;;;;;;;5012032;28;20441;-61
2023/03/23 10:43:50;;;;;;;15.23;2.83;;;;;;;;;;5012463;28;20053;-60
2023/03/23 10:46:22;;;;;;;15.43;2.85;;;;;;;;;;5011734;28;20092;-65
2023/03/23 10:48:49;;;;;;;16.95;2.60;;;;;;;;;;4998642;28;20042;-59
2023/03/23 10:51:17;;;;;;;15.02;2.50;;;;;;;;;;5020454;28;20042;-59
2023/03/23 10:53:45;;;;;;;22.15;4.07;;;;;;;;;;5011702;28;20104;-61
2023/03/23 10:56:28;;;;;;;12.35;2.83;;;;;;;;;;5010472;28;20038;-62
2023/03/23 10:58:55;;;;;;;18.95;2.85;;;;;;;;;;5012264;28;20044;-58
2023/03/23 11:01:30;;;;;;;22.38;3.30;;;;;;;;;;4995730;28;20049;-60
2023/03/23 11:03:56;;;;;;;22.42;2.70;;;;;;;;;;5002537;28;20521;-58
2023/03/23 11:06:26;;;;;;;14.52;2.92;;;;;;;;;;5004143;28;20454;-59
2023/03/23 11:08:57;;;;;;;15.63;2.40;;;;;;;;;;4990631;28;20049;-60
2023/03/23 11:11:27;;;;;;;12.93;1.92;;;;;;;;;;5006374;28;20050;-62
2023/03/23 11:13:57;;;;;;;9.82;2.83;;;;;;;;;;5006638;28;20053;-59
2023/03/23 11:16:23;;;;;;;;;;;;;;;;;;5003989;28;20084;-59
2023/03/23 11:18:49;;;;;;;12.90;2.45;;;;;;;;;;4992299;28;19929;-58
2023/03/23 11:21:16;;;;;;;14.55;2.58;;;;;;;;;;5014031;28;20117;-60
2023/03/23 11:23:51;;;;;;;16.42;2.75;;;;;;;;;;4994901;28;20038;-59
2023/03/23 11:26:39;;;;;;;17.13;4.25;;;;;;;;;;5012783;28;20052;-59
2023/03/23 11:29:15;;;;;;;21.08;2.72;;;;;;;;;;5013237;28;20042;-59
2023/03/23 11:31:48;;;;;;;15.13;2.80;;;;;;;;;;4962662;28;20050;-59
2023/03/23 11:34:19;;;;;;;19.08;2.78;;;;;;;;;;5008417;28;20537;-59
2023/03/23 11:36:48;;;;;;;20.17;2.47;;;;;;;;;;4997245;28;20037;-59
2023/03/23 11:39:34;;;;;;;15.35;2.85;;;;;;;;;;5013959;28;20046;-60
2023/03/23 11:42:01;;;;;;;13.27;2.22;;;;;;;;;;4996389;28;20493;-62
2023/03/23 11:44:33;;;;;;;12.57;2.22;;;;;;;;;;5008775;28;20045;-59
2023/03/23 11:47:05;;;;;;;7.22;1.77;;;;;;;;;;4997629;28;20410;-59
2023/03/23 11:49:38;;;;;;;13.13;2.78;;;;;;;;;;4996855;28;20475;-60
2023/03/23 11:52:14;;;;;;;8.88;2.15;;;;;;;;;;4995393;28;20053;-59
2023/03/23 11:54:47;;;;;;;14.73;2.40;;;;;;;;;;5013792;28;20467;-59
2023/03/23 11:57:13;;;;;;;12.95;2.63;;;;;;;;;;5010020;28;22875;-58
2023/03/23 11:59:40;;;;;;;16.13;2.35;;;;;;;;;;5008461;28;20049;-60
2023/03/23 12:02:09;;;;;;;16.00;3.65;;;;;;;;;;5010039;28;20133;-60
2023/03/23 12:04:38;;;;;;;11.77;2.50;;;;;;;;;;5012604;28;20388;-59
2023/03/23 12:07:07;;;;;;;18.67;2.65;;;;;;;;;;5008486;28;20108;-59
2023/03/23 12:09:58;;;;;;;12.93;2.70;;;14.70;99.90;;;;;;5004307;28;20042;-61
2023/03/23 12:12:35;;;;;;;9.73;2.03;;;;;;;;;;4978131;28;20061;-60
2023/03/23 12:15:12;;;;;;;13.40;2.13;;;;;;;;;;4981445;28;20129;-60
2023/03/23 12:17:39;;;;;;;17.55;2.50;;;;;;;;;;5012660;28;20092;-59
2023/03/23 12:20:21;;;;;;;16.25;2.88;;;;;;;;;;5011947;28;20398;-59
2023/03/23 12:22:52;;;;;;;11.55;2.10;;;;;;;;;;4993153;28;20066;-60
2023/03/23 12:25:41;;;;;;;11.65;2.60;;;;;;;;;;4993737;28;20050;-60
2023/03/23 12:28:15;;;;;;;19.50;4.95;;;;;;;;;;5011867;28;20375;-60
2023/03/23 12:30:47;;;;;;;14.02;2.42;;;;;;;;;;5005355;28;20352;-59
2023/03/23 12:33:26;;;;;;;13.63;3.03;;;;;;;;;;4991192;28;20034;-60
2023/03/23 12:36:14;;;;;;;12.13;1.38;;;14.50;99.90;;;;;;4976887;28;20132;-60
2023/03/23 12:39:05;;;;;;;16.95;2.50;;;;;;;;;;5009342;28;20037;-59
2023/03/23 12:41:41;;;;;;;11.38;2.35;;;;;;;;;;5011845;28;20037;-59
2023/03/23 12:44:13;;;;;;;15.05;3.00;;;;;;;;;;4996354;28;20071;-59
2023/03/23 12:46:49;;;;;;;11.18;2.47;;;;;;;;;;5013716;28;20042;-59
2023/03/23 12:49:54;;;;;;;16.25;2.38;;;15.30;99.90;;;;;;4995427;28;20081;-60
2023/03/23 12:52:29;;;;;;;8.93;2.20;;;;;;;;;;4938490;29;20047;-60
2023/03/23 12:55:25;;;;;;;12.82;2.17;;;;;;;;;;4909277;29;20048;-59
2023/03/23 12:58:03;;;;;;;13.32;2.20;;;;;;;;;;4915897;29;20091;-59
2023/03/23 13:00:34;;;;;;;12.95;2.65;;;;;;;;;;4918327;29;20532;-58
2023/03/23 13:03:10;;;;;;;13.93;3.00;;;;;;;;;;4934078;29;20420;-62
2023/03/23 13:05:39;;;;;;;17.52;3.03;;;;;;;;;;4918353;29;20050;-59
2023/03/23 13:08:22;;;;;;;14.35;2.55;;;;;;;;;;4928592;29;20492;-60
2023/03/23 13:10:49;;;;;;;16.20;3.08;;;;;;;;;;4937334;29;20516;-59
2023/03/23 13:13:20;;;;;;;10.77;2.95;;;;;;;;;;4938868;29;20081;-59
2023/03/23 13:15:55;;;;;;;9.30;2.28;;;;;;;;;;4920106;29;20047;-60
2023/03/23 13:18:38;;;;;;;13.45;2.50;;;;;;;;;;4932680;29;20135;-60
2023/03/23 13:21:11;;;;;;;21.63;2.70;;;;;;;;;;4920320;29;20500;-60
2023/03/23 13:23:37;;;;;;;20.55;4.43;;;;;;;;;;4919037;29;20044;-60
2023/03/23 13:26:06;;;;;;;13.32;3.28;;;;;;;;;;4963351;23;20490;-60
2023/03/23 13:28:34;;;;;;;13.75;2.35;;;;;;;;;;4985680;28;20057;-61
2023/03/23 13:31:04;;;;;;;10.95;2.33;;;;;;;;;;4986213;28;20042;-61
2023/03/23 13:33:31;;;;;;;14.27;2.72;;;;;;;;;;4979956;28;20110;-61
2023/03/23 13:36:05;;;;;;;17.42;3.47;;;;;;;;;;4993714;28;20117;-63
2023/03/23 13:38:31;;;;;;;14.27;2.97;;;;;;;;;;4986111;28;20551;-60
2023/03/23 13:40:57;;;;;;;19.88;3.65;;;;;;;;;;4987785;28;20042;-62
2023/03/23 13:43:31;;;;;;;13.18;2.97;;;;;;;;;;4992704;28;20046;-60
2023/03/23 13:46:07;;;;;;;15.65;3.25;;;;;;;;;;4994820;28;20080;-62
2023/03/23 13:48:41;;;;;;;16.80;2.95;;;;;;;;;;4982538;28;20058;-60
2023/03/23 13:51:23;;;;;;;19.67;3.90;;;;;;;;;;4986735;28;20038;-60
2023/03/23 13:53:51;;;;;;;14.05;2.60;;;;;;;;;;4989050;28;20485;-60
2023/03/23 13:56:18;;;;;;;13.88;2.53;;;;;;;;;;4981987;28;20062;-59
2023/03/23 13:58:53;;;;;;;20.02;4.40;;;;;;;;;;4977224;28;20043;-60
2023/03/23 14:01:32;;;;;;;10.43;2.85;;;;;;;;;;4975417;28;20057;-59
2023/03/23 14:04:00;;;;;;;16.48;3.03;;;;;;;;;;4983651;28;20076;-61
2023/03/23 14:06:27;;;;;;;8.48;2.33;;;;;;;;;;4983966;28;20041;-59
2023/03/23 14:08:54;;;;;;;14.38;2.90;;;;;;;;;;4977047;28;20143;-59
2023/03/23 14:11:29;;;;;;;14.30;3.20;;;;;;;;;;4975835;28;20050;-59
2023/03/23 14:14:01;;;;;;;10.93;2.20;;;;;;;;;;4990956;28;20046;-59
2023/03/23 14:16:36;;;;;;;12.77;2.05;;;;;;;;;;4990722;28;20077;-61
2023/03/23 14:19:04;;;;;;;7.72;2.15;;;;;;;;;;4975593;28;20498;-59
2023/03/23 14:21:40;;;;;;;14.07;2.75;;;;;;;;;;4976592;28;20082;-59
2023/03/23 14:24:10;;;;;;;11.05;2.42;;;;;;;;;;4992021;28;20038;-59
2023/03/23 14:26:37;;;;;;;11.90;1.98;;;;;;;;;;5006447;28;20052;-60
2023/03/23 14:29:04;;;;;;;9.27;2.50;;;;;;;;;;5012974;28;20100;-61
2023/03/23 14:31:32;;;;;;;17.58;2.40;;;;;;;;;;5014988;28;20042;-59
2023/03/23 14:34:02;;;;;;;8.10;2.20;;;;;;;;;;5013171;28;20048;-59
2023/03/23 14:36:29;;;;;;;9.88;1.63;;;;;;;;;;4995164;28;20125;-59
2023/03/23 14:39:17;;;;;;;6.75;1.70;;;15.10;99.90;;;;;;4991007;28;21131;-59
2023/03/23 14:41:44;;;;;;;11.23;2.72;;;;;;;;;;5013232;28;20045;-59
2023/03/23 14:44:13;;;;;;;9.32;2.00;;;;;;;;;;5014396;28;20046;-59
2023/03/23 14:46:39;;;;;;;14.50;2.67;;;;;;;;;;4996818;28;20077;-59
2023/03/23 14:49:06;;;;;;;10.85;2.63;;;;;;;;;;4993609;28;20049;-60
2023/03/23 14:51:32;;;;;;;11.73;2.67;;;;;;;;;;5012187;28;20042;-59
2023/03/23 14:54:00;;;;;;;12.10;2.08;;;;;;;;;;5014809;28;20049;-59
2023/03/23 14:56:33;;;;;;;14.00;2.60;;;;;;;;;;5015051;28;20117;-62